createdAt,value
2019-01-19T00:02:09.210Z,950.4
2019-01-19T00:05:15.177Z,950.3
2019-01-19T00:08:21.159Z,950.4
2019-01-19T00:11:27.095Z,950.4
2019-01-19T00:14:33.073Z,950.4
2019-01-19T00:17:39.013Z,950.4
2019-01-19T00:20:45.074Z,950.4
2019-01-19T00:23:50.952Z,950.4
2019-01-19T00:26:57.032Z,950.4
2019-01-19T00:30:03.074Z,950.4
2019-01-19T00:33:08.930Z,950.4
2019-01-19T00:36:14.995Z,950.5
2019-01-19T00:39:20.982Z,950.5
2019-01-19T00:42:26.909Z,950.5
2019-01-19T00:45:32.900Z,950.5
2019-01-19T00:48:38.771Z,950.5
2019-01-19T00:51:44.780Z,950.6
2019-01-19T00:54:50.834Z,950.5
2019-01-19T00:57:56.903Z,950.5
2019-01-19T01:01:02.852Z,950.5
2019-01-19T01:04:08.816Z,950.5
2019-01-19T01:07:14.877Z,950.4
2019-01-19T01:10:20.838Z,950.4
2019-01-19T01:13:26.714Z,950.4
2019-01-19T01:16:32.808Z,950.4
2019-01-19T01:19:38.793Z,950.4
2019-01-19T01:22:44.798Z,950.4
2019-01-19T01:25:50.792Z,950.5
2019-01-19T01:28:56.695Z,950.5
2019-01-19T01:32:02.655Z,950.5
2019-01-19T01:35:08.677Z,950.5
2019-01-19T01:38:14.547Z,950.5
2019-01-19T01:41:20.642Z,950.5
2019-01-19T01:44:26.624Z,950.5
2019-01-19T01:47:32.652Z,950.6
2019-01-19T01:50:38.713Z,950.6
2019-01-19T01:53:44.598Z,950.7
2019-01-19T01:56:50.541Z,950.6
2019-01-19T01:59:56.595Z,950.7
2019-01-19T02:03:02.733Z,950.7
2019-01-19T02:06:08.715Z,950.6
2019-01-19T02:09:14.675Z,950.7
2019-01-19T02:12:20.635Z,950.7
2019-01-19T02:15:26.594Z,950.6
2019-01-19T02:18:32.555Z,950.6
2019-01-19T02:21:38.431Z,950.6
2019-01-19T02:24:44.474Z,950.6
2019-01-19T02:27:50.350Z,950.6
2019-01-19T02:30:56.290Z,950.7
2019-01-19T02:34:02.252Z,950.6
2019-01-19T02:37:08.131Z,950.6
2019-01-19T02:40:14.074Z,950.6
2019-01-19T02:43:19.946Z,950.6
2019-01-19T02:46:25.985Z,950.6
2019-01-19T02:49:32.047Z,950.6
2019-01-19T02:52:38.011Z,950.6
2019-01-19T02:55:43.885Z,950.6
2019-01-19T02:58:49.926Z,950.5
2019-01-19T03:01:55.807Z,950.5
2019-01-19T03:05:01.745Z,950.5
2019-01-19T03:08:07.627Z,950.6
2019-01-19T03:11:13.561Z,950.6
2019-01-19T03:14:19.632Z,950.6
2019-01-19T03:17:25.584Z,950.5
2019-01-19T03:20:31.545Z,950.5
2019-01-19T03:23:37.482Z,950.6
2019-01-19T03:26:43.464Z,950.5
2019-01-19T03:29:49.430Z,950.5
2019-01-19T03:32:55.440Z,950.6
2019-01-19T03:36:05.844Z,950.5
2019-01-19T03:39:11.727Z,950.5
2019-01-19T03:42:17.764Z,950.6
2019-01-19T03:45:23.723Z,950.6
2019-01-19T03:48:29.682Z,950.6
2019-01-19T03:51:35.628Z,950.6
2019-01-19T03:54:41.601Z,950.5
2019-01-19T03:57:47.555Z,950.6
2019-01-19T04:00:53.725Z,950.7
2019-01-19T04:03:59.684Z,950.7
2019-01-19T04:07:05.563Z,950.7
2019-01-19T04:10:11.582Z,950.7
2019-01-19T04:13:17.593Z,950.7
2019-01-19T04:16:23.466Z,950.7
2019-01-19T04:19:29.482Z,950.6
2019-01-19T04:22:35.364Z,950.7
2019-01-19T04:25:41.330Z,950.8
2019-01-19T04:28:47.364Z,950.9
2019-01-19T04:31:53.320Z,950.9
2019-01-19T04:34:59.289Z,950.9
2019-01-19T04:38:05.253Z,950.9
2019-01-19T04:41:11.309Z,950.9
2019-01-19T04:44:17.192Z,951
2019-01-19T04:47:23.130Z,951
2019-01-19T04:50:29.085Z,951.1
2019-01-19T04:53:35.144Z,951.1
2019-01-19T04:56:41.031Z,951.1
2019-01-19T04:59:47.067Z,951.1
2019-01-19T05:02:53.169Z,951.1
2019-01-19T05:05:59.094Z,951.1
2019-01-19T05:09:14.596Z,951.1
2019-01-19T05:12:20.522Z,951.1
2019-01-19T05:15:26.402Z,951.2
2019-01-19T05:18:32.342Z,951.1
2019-01-19T05:21:38.354Z,951.1
2019-01-19T05:24:44.259Z,951.1
2019-01-19T05:27:50.138Z,951.2
2019-01-19T05:30:56.078Z,951.2
2019-01-19T05:34:03.485Z,951.2
2019-01-19T05:37:09.350Z,951.2
2019-01-19T05:40:15.386Z,951.2
2019-01-19T05:43:21.284Z,951.3
2019-01-19T05:46:27.210Z,951.2
2019-01-19T05:49:33.176Z,951.2
2019-01-19T05:52:39.327Z,951.3
2019-01-19T05:55:45.286Z,951.4
2019-01-19T05:58:51.258Z,951.3
2019-01-19T06:01:57.310Z,951.3
2019-01-19T06:05:03.183Z,951.3
2019-01-19T06:08:09.144Z,951.3
2019-01-19T06:11:15.086Z,951.4
2019-01-19T06:14:20.998Z,951.5
2019-01-19T06:17:27.009Z,951.5
2019-01-19T06:20:32.964Z,951.5
2019-01-19T06:23:38.923Z,951.5
2019-01-19T06:26:44.883Z,951.5
2019-01-19T06:29:50.761Z,951.5
2019-01-19T06:32:56.809Z,951.6
2019-01-19T06:36:02.769Z,951.6
2019-01-19T06:39:08.744Z,951.5
2019-01-19T06:42:14.803Z,951.5
2019-01-19T06:45:20.749Z,951.5
2019-01-19T06:48:26.712Z,951.6
2019-01-19T06:51:32.660Z,951.6
2019-01-19T06:54:38.621Z,951.7
2019-01-19T06:57:44.580Z,951.6
2019-01-19T07:00:50.641Z,951.7
2019-01-19T07:03:56.524Z,951.7
2019-01-19T07:07:04.106Z,951.6
2019-01-19T07:10:12.587Z,951.7
2019-01-19T07:13:18.625Z,951.8
2019-01-19T07:16:24.639Z,951.7
2019-01-19T07:19:30.599Z,951.7
2019-01-19T07:22:36.557Z,951.8
2019-01-19T07:25:45.476Z,951.7
2019-01-19T07:28:51.559Z,951.8
2019-01-19T07:31:57.426Z,951.7
2019-01-19T07:35:03.367Z,951.8
2019-01-19T07:38:09.326Z,951.9
2019-01-19T07:41:18.325Z,951.9
2019-01-19T07:44:24.373Z,951.9
2019-01-19T07:47:30.412Z,951.9
2019-01-19T07:50:37.676Z,952
2019-01-19T07:53:46.296Z,951.9
2019-01-19T07:56:55.167Z,951.9
2019-01-19T08:00:01.189Z,951.9
2019-01-19T08:03:07.055Z,952
2019-01-19T08:06:13.098Z,952
2019-01-19T08:09:18.977Z,952
2019-01-19T08:12:24.921Z,952
2019-01-19T08:15:30.982Z,952.1
2019-01-19T08:18:36.938Z,952
2019-01-19T08:21:42.901Z,952.1
2019-01-19T08:24:48.777Z,952.1
2019-01-19T08:27:54.710Z,952.1
2019-01-19T08:31:00.669Z,952.1
2019-01-19T08:34:06.731Z,952.2
2019-01-19T08:37:12.675Z,952.2
2019-01-19T08:40:21.833Z,952.2
2019-01-19T08:43:27.793Z,952.2
2019-01-19T08:46:33.789Z,952.2
2019-01-19T08:49:39.914Z,952.3
2019-01-19T08:52:45.873Z,952.3
2019-01-19T08:55:51.830Z,952.3
2019-01-19T08:58:57.790Z,952.4
2019-01-19T09:02:03.852Z,952.4
2019-01-19T09:05:11.362Z,952.4
2019-01-19T09:08:17.237Z,952.4
2019-01-19T09:11:23.263Z,952.5
2019-01-19T09:14:29.225Z,952.4
2019-01-19T09:17:35.189Z,952.4
2019-01-19T09:20:41.068Z,952.4
2019-01-19T09:23:46.959Z,952.4
2019-01-19T09:26:52.960Z,952.4
2019-01-19T09:30:01.513Z,952.4
2019-01-19T09:33:07.398Z,952.4
2019-01-19T09:36:13.408Z,952.3
2019-01-19T09:39:19.369Z,952.2
2019-01-19T09:42:25.236Z,952.2
2019-01-19T09:45:32.563Z,952.2
2019-01-19T09:48:38.771Z,952.1
2019-01-19T09:51:44.730Z,952.1
2019-01-19T09:54:50.694Z,952.1
2019-01-19T09:57:56.752Z,952.1
2019-01-19T10:01:02.712Z,952.1
2019-01-19T10:04:08.674Z,952
2019-01-19T10:07:14.550Z,952
2019-01-19T10:10:20.491Z,951.9
2019-01-19T10:13:26.366Z,951.8
2019-01-19T10:16:32.306Z,951.8
2019-01-19T10:19:38.269Z,951.8
2019-01-19T10:22:44.225Z,951.8
2019-01-19T10:25:50.107Z,951.7
2019-01-19T10:28:56.041Z,951.8
2019-01-19T10:32:02.001Z,951.8
2019-01-19T10:35:10.667Z,951.7
2019-01-19T10:38:16.691Z,951.8
2019-01-19T10:41:22.643Z,951.7
2019-01-19T10:44:28.609Z,951.6
2019-01-19T10:47:34.567Z,951.6
2019-01-19T10:50:40.484Z,951.6
2019-01-19T10:53:46.482Z,951.6
2019-01-19T10:56:52.558Z,951.5
2019-01-19T10:59:58.423Z,951.5
2019-01-19T11:03:04.468Z,951.5
2019-01-19T11:06:10.341Z,951.5
2019-01-19T11:09:16.305Z,951.4
2019-01-19T11:12:22.371Z,951.4
2019-01-19T11:15:28.409Z,951.4
2019-01-19T11:18:34.437Z,951.4
2019-01-19T11:21:40.312Z,951.4
2019-01-19T11:24:46.496Z,951.3
2019-01-19T11:27:52.458Z,951.4
2019-01-19T11:30:58.431Z,951.4
2019-01-19T11:34:04.489Z,951.4
2019-01-19T11:37:10.551Z,951.3
2019-01-19T11:40:16.417Z,951.3
2019-01-19T11:43:22.561Z,951.2
2019-01-19T11:46:28.430Z,951.2
2019-01-19T11:49:34.479Z,951.2
2019-01-19T11:52:40.434Z,951.2
2019-01-19T11:55:47.212Z,951.2
2019-01-19T11:58:53.269Z,951.1
2019-01-19T12:01:59.231Z,951.1
2019-01-19T12:05:05.192Z,951.2
2019-01-19T12:08:11.150Z,951.1
2019-01-19T12:11:24.900Z,951
2019-01-19T12:14:30.878Z,951
2019-01-19T12:17:37.040Z,951
2019-01-19T12:20:42.900Z,951.1
2019-01-19T12:23:48.832Z,951
2019-01-19T12:26:54.708Z,951
2019-01-19T12:30:00.801Z,951
2019-01-19T12:33:09.732Z,951
2019-01-19T12:36:15.765Z,950.9
2019-01-19T12:39:21.812Z,950.9
2019-01-19T12:42:27.740Z,951
2019-01-19T12:45:33.734Z,950.9
2019-01-19T12:48:39.661Z,950.9
2019-01-19T12:51:45.744Z,950.8
2019-01-19T12:54:51.622Z,950.9
2019-01-19T12:57:57.524Z,950.8
2019-01-19T13:01:03.503Z,950.8
2019-01-19T13:04:09.481Z,950.8
2019-01-19T13:07:15.508Z,950.8
2019-01-19T13:10:21.755Z,950.8
2019-01-19T13:13:27.771Z,950.8
2019-01-19T13:16:33.797Z,950.8
2019-01-19T13:19:39.771Z,950.7
2019-01-19T13:22:47.259Z,950.8
2019-01-19T13:25:53.341Z,950.7
2019-01-19T13:28:59.306Z,950.7
2019-01-19T13:32:06.293Z,950.7
2019-01-19T13:35:12.406Z,950.8
2019-01-19T13:38:18.420Z,950.7
2019-01-19T13:41:24.376Z,950.7
2019-01-19T13:44:30.256Z,950.8
2019-01-19T13:47:36.294Z,950.8
2019-01-19T13:50:42.198Z,950.8
2019-01-19T13:53:48.215Z,950.8
2019-01-19T13:56:54.174Z,950.7
2019-01-19T14:00:00.175Z,950.7
2019-01-19T14:03:06.200Z,950.7
2019-01-19T14:06:12.071Z,950.6
2019-01-19T14:09:18.016Z,950.7
2019-01-19T14:12:23.978Z,950.6
2019-01-19T14:15:30.546Z,950.6
2019-01-19T14:18:36.503Z,950.6
2019-01-19T14:21:42.465Z,950.5
2019-01-19T14:24:48.526Z,950.6
2019-01-19T14:27:54.488Z,950.6
2019-01-19T14:31:00.352Z,950.6
2019-01-19T14:34:06.299Z,950.5
2019-01-19T14:37:12.268Z,950.6
2019-01-19T14:40:18.222Z,950.6
2019-01-19T14:43:24.089Z,950.6
2019-01-19T14:46:33.013Z,950.6
2019-01-19T14:49:38.983Z,950.6
2019-01-19T14:52:44.844Z,950.6
2019-01-19T14:55:50.804Z,950.6
2019-01-19T14:58:59.413Z,950.7
2019-01-19T15:02:05.374Z,950.7
2019-01-19T15:05:11.339Z,950.6
2019-01-19T15:08:17.332Z,950.6
2019-01-19T15:11:23.249Z,950.6
2019-01-19T15:14:29.310Z,950.6
2019-01-19T15:17:35.314Z,950.6
2019-01-19T15:20:41.363Z,950.7
2019-01-19T15:23:47.415Z,950.7
2019-01-19T15:26:53.329Z,950.7
2019-01-19T15:29:59.314Z,950.7
2019-01-19T15:33:05.382Z,950.7
2019-01-19T15:36:11.440Z,950.7
2019-01-19T15:39:17.396Z,950.7
2019-01-19T15:42:23.356Z,950.7
2019-01-19T15:45:29.418Z,950.7
2019-01-19T15:48:35.450Z,950.8
2019-01-19T15:51:41.322Z,950.8
2019-01-19T15:54:47.215Z,950.8
2019-01-19T15:57:53.077Z,950.8
2019-01-19T16:00:59.107Z,950.8
2019-01-19T16:04:05.043Z,950.8
2019-01-19T16:07:11.026Z,950.7
2019-01-19T16:10:16.985Z,950.8
2019-01-19T16:13:26.071Z,950.8
2019-01-19T16:16:34.037Z,950.8
2019-01-19T16:19:39.993Z,950.8
2019-01-19T16:22:45.965Z,950.8
2019-01-19T16:25:54.697Z,950.8
2019-01-19T16:29:00.556Z,950.9
2019-01-19T16:32:09.455Z,950.9
2019-01-19T16:35:15.332Z,950.9
2019-01-19T16:38:21.271Z,950.9
2019-01-19T16:41:27.233Z,950.9
2019-01-19T16:44:33.251Z,950.9
2019-01-19T16:47:39.284Z,950.9
2019-01-19T16:50:45.314Z,951
2019-01-19T16:53:51.990Z,951
2019-01-19T16:56:57.869Z,951
2019-01-19T17:00:03.815Z,951
2019-01-19T17:03:09.684Z,951.1
2019-01-19T17:06:17.470Z,951.1
2019-01-19T17:09:23.480Z,951.1
2019-01-19T17:12:36.327Z,951.2
2019-01-19T17:15:42.311Z,951.2
2019-01-19T17:18:48.374Z,951.2
2019-01-19T17:21:54.417Z,951.3
2019-01-19T17:25:00.318Z,951.3
2019-01-19T17:28:06.463Z,951.3
2019-01-19T17:31:15.521Z,951.3
2019-01-19T17:34:21.454Z,951.2
2019-01-19T17:37:27.359Z,951.3
2019-01-19T17:40:33.264Z,951.3
2019-01-19T17:43:39.276Z,951.4
2019-01-19T17:46:45.185Z,951.3
2019-01-19T17:49:51.092Z,951.4
2019-01-19T17:52:56.956Z,951.4
2019-01-19T17:56:02.967Z,951.4
2019-01-19T17:59:08.851Z,951.4
2019-01-19T18:02:14.906Z,951.3
2019-01-19T18:05:20.856Z,951.4
2019-01-19T18:08:26.795Z,951.4
2019-01-19T18:11:32.762Z,951.4
2019-01-19T18:14:40.357Z,951.4
2019-01-19T18:17:46.319Z,951.4
2019-01-19T18:20:53.502Z,951.4
2019-01-19T18:23:59.440Z,951.4
2019-01-19T18:27:05.421Z,951.4
2019-01-19T18:30:11.383Z,951.3
2019-01-19T18:33:17.266Z,951.5
2019-01-19T18:36:23.303Z,951.4
2019-01-19T18:39:29.273Z,951.5
2019-01-19T18:42:35.347Z,951.4
2019-01-19T18:45:41.353Z,951.4
2019-01-19T18:48:47.524Z,951.4
2019-01-19T18:51:53.533Z,951.4
2019-01-19T18:54:59.576Z,951.3
2019-01-19T18:58:05.537Z,951.4
2019-01-19T19:01:11.460Z,951.3
2019-01-19T19:04:17.627Z,951.4
2019-01-19T19:07:23.713Z,951.3
2019-01-19T19:10:29.600Z,951.4
2019-01-19T19:13:35.533Z,951.5
2019-01-19T19:16:41.596Z,951.3
2019-01-19T19:19:47.582Z,951.4
2019-01-19T19:22:53.436Z,951.4
2019-01-19T19:25:59.504Z,951.5
2019-01-19T19:29:05.420Z,951.4
2019-01-19T19:32:11.404Z,951.4
2019-01-19T19:35:17.360Z,951.4
2019-01-19T19:38:23.235Z,951.4
2019-01-19T19:41:30.907Z,951.4
2019-01-19T19:44:36.793Z,951.4
2019-01-19T19:47:42.733Z,951.4
2019-01-19T19:50:48.611Z,951.5
2019-01-19T19:53:54.550Z,951.5
2019-01-19T19:57:00.478Z,951.5
2019-01-19T20:00:06.472Z,951.5
2019-01-19T20:03:12.530Z,951.5
2019-01-19T20:06:18.418Z,951.6
2019-01-19T20:09:24.339Z,951.5
2019-01-19T20:12:30.297Z,951.6
2019-01-19T20:15:36.363Z,951.5
2019-01-19T20:18:42.238Z,951.5
2019-01-19T20:21:48.239Z,951.5
2019-01-19T20:24:54.252Z,951.6
2019-01-19T20:28:00.313Z,951.6
2019-01-19T20:31:06.495Z,951.5
2019-01-19T20:34:12.461Z,951.5
2019-01-19T20:37:18.417Z,951.5
2019-01-19T20:40:25.786Z,951.4
2019-01-19T20:43:31.670Z,951.5
2019-01-19T20:46:37.725Z,951.5
2019-01-19T20:49:43.660Z,951.5
2019-01-19T20:52:49.670Z,951.5
2019-01-19T20:55:55.565Z,951.5
2019-01-19T20:59:01.535Z,951.4
2019-01-19T21:02:07.494Z,951.4
2019-01-19T21:05:13.455Z,951.5
2019-01-19T21:08:19.517Z,951.5
2019-01-19T21:11:25.580Z,951.5
2019-01-19T21:14:31.537Z,951.5
2019-01-19T21:17:37.497Z,951.5
2019-01-19T21:20:43.458Z,951.5
2019-01-19T21:23:52.181Z,951.6
2019-01-19T21:26:58.141Z,951.5
2019-01-19T21:30:04.105Z,951.5
2019-01-19T21:33:10.125Z,951.5
2019-01-19T21:36:18.545Z,951.5
2019-01-19T21:39:24.549Z,951.6
2019-01-19T21:42:30.548Z,951.6
2019-01-19T21:45:36.564Z,951.6
2019-01-19T21:48:42.622Z,951.5
2019-01-19T21:51:48.533Z,951.5
2019-01-19T21:54:54.587Z,951.6
2019-01-19T21:58:00.604Z,951.6
2019-01-19T22:01:06.576Z,951.6
2019-01-19T22:04:12.527Z,951.6
2019-01-19T22:07:18.482Z,951.6
2019-01-19T22:10:24.365Z,951.6
2019-01-19T22:13:30.407Z,951.6
2019-01-19T22:16:38.847Z,951.6
2019-01-19T22:19:44.935Z,951.5
2019-01-19T22:22:50.804Z,951.5
2019-01-19T22:25:56.821Z,951.5
2019-01-19T22:29:02.891Z,951.4
2019-01-19T22:32:11.542Z,951.5
2019-01-19T22:35:17.449Z,951.4
2019-01-19T22:38:23.416Z,951.4
2019-01-19T22:41:29.467Z,951.4
2019-01-19T22:44:35.342Z,951.3
2019-01-19T22:47:41.385Z,951.4
2019-01-19T22:50:47.346Z,951.3
2019-01-19T22:53:53.221Z,951.3
2019-01-19T22:56:59.265Z,951.3
2019-01-19T23:00:05.142Z,951.2
2019-01-19T23:03:11.085Z,951.2
2019-01-19T23:06:17.143Z,951.2
2019-01-19T23:09:23.108Z,951.1
2019-01-19T23:12:29.269Z,951.1
2019-01-19T23:15:35.234Z,951.1
2019-01-19T23:18:41.162Z,951.1
2019-01-19T23:21:47.144Z,951
2019-01-19T23:24:54.947Z,951.1
2019-01-19T23:28:00.907Z,951
2019-01-19T23:31:06.784Z,951
2019-01-19T23:34:12.911Z,951
2019-01-19T23:37:18.988Z,951
2019-01-19T23:40:24.874Z,951
2019-01-19T23:43:30.811Z,950.9
2019-01-19T23:46:36.822Z,951
2019-01-19T23:49:42.691Z,950.9
2019-01-19T23:52:48.694Z,950.9
2019-01-19T23:55:54.754Z,950.9
2019-01-19T23:59:03.885Z,950.9
